Aeroporto :
LOGIN :

Iscrizione | Disclaimer

   EN    FR    IT 

 










Sommario :    VFR   VFR Marginale   IFR   IFR Intensivo   IFR Molto Intensivo
Visibilità : 
Base nubi : 
>= 8 km
>= 3000ft
5 / 8 km
1000 / 3000 ft
1500m / 5 km
500 / 1000 ft
800 / 1500m
200 / 500 ft
< 800m
< 200 ft
Simboli :   Temporali  Nebbia  Neve Forte  Precipitazioni Forti  Vento > 20 kt
SIGMETs :   Varie  Temporali  Ghiacco  Turbolenza  Onda orograficha  Ceneri Vulcaniche






- Altitudine del aeroporto : 265 ft


LFMC - Le Luc

ULTIMO METAR :
  • 151330Z AUTO 14009KT 110V180 9999 ////// 34/19 Q1012

METARs OBSOLETI :
  • 151300Z AUTO 13009KT 050V190 //// // ////// 33/20 Q1012
  • 151230Z AUTO 18006KT 100V220 9999 ////// 33/19 Q1012
  • 151130Z AUTO VRB06KT 9999 ////// 33/20 Q1013
  • 151100Z AUTO 19006KT 140V250 9999 ////// 33/18 Q1013
  • 151030Z AUTO VRB03KT 9999 ////// 32/18 Q1013
  • 151000Z AUTO VRB03KT 9999 ////// 31/18 Q1014
  • 150930Z AUTO VRB03KT 9999 ////// 30/19 Q1014
  • 150900Z AUTO VRB03KT 9999 ////// 30/18 Q1014

TAF N/A



MetMap, La meteo Aeronautica in un colpo d'occhio ! - Copyright ORBIFLY Dicembre 2007 - Disclaimer

ORBIFLY MET'MAP TEAM :

Programmazione e sviluppo : Alexandra Zaïnal
Concezione : Baudouin d'Aumeries
Supporto tecnico e logistico : Manuel Goepfert
Aiuto : Marc-Olivier Méhu
Aiuto per la traduzione : Arnaldo La Scala




FONTI E CREDITI :

   NOAA